createdAt,value
2022-12-19T00:00:38.444Z,1.95
2022-12-19T00:03:08.582Z,1.96
2022-12-19T00:05:40.627Z,1.98
2022-12-19T00:08:18.164Z,2.02
2022-12-19T00:10:56.908Z,2.03
2022-12-19T00:13:27.283Z,2.05
2022-12-19T00:16:03.993Z,2.06
2022-12-19T00:18:33.950Z,2.06
2022-12-19T00:21:05.840Z,2.05
2022-12-19T00:23:37.770Z,2.05
2022-12-19T00:26:13.090Z,2.05
2022-12-19T00:28:43.552Z,2.05
2022-12-19T00:31:20.354Z,2.07
2022-12-19T00:33:51.286Z,2.07
2022-12-19T00:36:23.170Z,2.07
2022-12-19T00:38:54.353Z,2.08
2022-12-19T00:41:25.625Z,2.10
2022-12-19T00:43:56.820Z,2.11
2022-12-19T00:46:30.995Z,2.14
2022-12-19T00:49:00.919Z,2.15
2022-12-19T00:51:32.575Z,2.15
2022-12-19T00:54:03.098Z,2.15
2022-12-19T00:56:37.710Z,2.17
2022-12-19T00:59:09.022Z,2.19
2022-12-19T01:01:43.855Z,2.21
2022-12-19T01:04:28.110Z,2.22
2022-12-19T01:07:01.921Z,2.19
2022-12-19T01:09:32.711Z,2.18
2022-12-19T01:12:14.832Z,2.19
2022-12-19T01:14:44.533Z,2.21
2022-12-19T01:17:16.839Z,2.24
2022-12-19T01:19:46.541Z,2.25
2022-12-19T01:22:16.718Z,2.25
2022-12-19T01:24:46.503Z,2.26
2022-12-19T01:27:16.264Z,2.27
2022-12-19T01:29:52.714Z,2.29
2022-12-19T01:32:25.828Z,2.32
2022-12-19T01:34:55.673Z,2.35
2022-12-19T01:37:25.514Z,2.37
2022-12-19T01:39:55.396Z,2.39
2022-12-19T01:42:26.129Z,2.40
2022-12-19T01:45:33.427Z,2.43
2022-12-19T01:48:21.617Z,2.43
2022-12-19T01:51:01.439Z,2.43
2022-12-19T01:53:37.329Z,2.45
2022-12-19T01:56:20.281Z,2.45
2022-12-19T01:58:55.415Z,2.47
2022-12-19T02:01:40.872Z,2.49
2022-12-19T02:04:24.630Z,2.50
2022-12-19T02:06:55.900Z,2.52
2022-12-19T02:09:25.655Z,2.53
2022-12-19T02:11:56.317Z,2.55
2022-12-19T02:14:26.451Z,2.55
2022-12-19T02:17:01.925Z,2.58
2022-12-19T02:20:02.649Z,2.62
2022-12-19T02:22:43.182Z,2.63
2022-12-19T02:25:45.699Z,2.66
2022-12-19T02:28:35.742Z,2.66
2022-12-19T02:31:17.483Z,2.66
2022-12-19T02:33:55.464Z,2.65
2022-12-19T02:36:38.992Z,2.66
2022-12-19T02:39:13.717Z,2.68
2022-12-19T02:41:49.151Z,2.66
2022-12-19T02:44:24.773Z,2.68
2022-12-19T02:46:58.349Z,2.68
2022-12-19T02:49:31.139Z,2.70
2022-12-19T02:52:01.206Z,2.71
2022-12-19T02:54:30.966Z,2.72
2022-12-19T02:57:12.364Z,2.76
2022-12-19T02:59:55.303Z,2.77
2022-12-19T03:02:39.153Z,2.79
2022-12-19T03:05:17.163Z,2.78
2022-12-19T03:07:54.131Z,2.77
2022-12-19T03:10:34.571Z,2.77
2022-12-19T03:13:09.054Z,2.80
2022-12-19T03:15:43.231Z,2.80
2022-12-19T03:18:16.288Z,2.81
2022-12-19T03:20:51.110Z,2.82
2022-12-19T03:23:21.544Z,2.84
2022-12-19T03:25:55.257Z,2.83
2022-12-19T03:28:30.133Z,2.81
2022-12-19T03:31:02.743Z,2.80
2022-12-19T03:33:37.092Z,2.81
2022-12-19T03:36:10.964Z,2.81
2022-12-19T03:38:43.389Z,2.83
2022-12-19T03:41:15.676Z,2.84
2022-12-19T03:43:45.620Z,2.87
2022-12-19T03:46:21.760Z,2.89
2022-12-19T03:48:57.342Z,2.90
2022-12-19T03:51:34.703Z,2.90
2022-12-19T03:54:09.098Z,2.92
2022-12-19T03:56:45.941Z,2.94
2022-12-19T03:59:22.315Z,2.96
2022-12-19T04:01:54.798Z,2.98
2022-12-19T04:04:29.996Z,3.01
2022-12-19T04:07:01.674Z,3.02
2022-12-19T04:09:33.440Z,3.03
2022-12-19T04:12:05.970Z,3.06
2022-12-19T04:14:38.640Z,3.08
2022-12-19T04:17:16.665Z,3.09
2022-12-19T04:19:54.251Z,3.12
2022-12-19T04:22:29.964Z,3.11
2022-12-19T04:25:02.283Z,3.12
2022-12-19T04:27:34.328Z,3.15
2022-12-19T04:30:05.590Z,3.18
2022-12-19T04:32:38.435Z,3.20
2022-12-19T04:35:11.697Z,3.22
2022-12-19T04:37:41.612Z,3.23
2022-12-19T04:40:12.926Z,3.24
2022-12-19T04:42:42.641Z,3.25
2022-12-19T04:45:13.320Z,3.26
2022-12-19T04:47:43.225Z,3.27
2022-12-19T04:50:15.734Z,3.29
2022-12-19T04:52:45.417Z,3.31
2022-12-19T04:55:15.169Z,3.33
2022-12-19T04:57:44.874Z,3.36
2022-12-19T05:00:16.023Z,3.38
2022-12-19T05:02:45.836Z,3.41
2022-12-19T05:05:19.051Z,3.44
2022-12-19T05:07:49.306Z,3.44
2022-12-19T05:10:19.091Z,3.45
2022-12-19T05:12:48.831Z,3.47
2022-12-19T05:15:18.647Z,3.48
2022-12-19T05:17:48.367Z,3.51
2022-12-19T05:20:21.010Z,3.53
2022-12-19T05:22:50.880Z,3.54
2022-12-19T05:25:20.715Z,3.55
2022-12-19T05:27:50.530Z,3.57
2022-12-19T05:30:20.362Z,3.60
2022-12-19T05:32:50.142Z,3.62
2022-12-19T05:35:22.485Z,3.63
2022-12-19T05:37:52.451Z,3.64
2022-12-19T05:40:22.185Z,3.66
2022-12-19T05:42:51.917Z,3.68
2022-12-19T05:45:21.707Z,3.69
2022-12-19T05:47:51.623Z,3.71
2022-12-19T05:50:23.986Z,3.74
2022-12-19T05:52:53.769Z,3.75
2022-12-19T05:55:23.524Z,3.78
2022-12-19T05:57:53.312Z,3.79
2022-12-19T06:00:23.901Z,3.82
2022-12-19T06:02:53.719Z,3.84
2022-12-19T06:05:26.130Z,3.85
2022-12-19T06:07:55.846Z,3.88
2022-12-19T06:10:25.567Z,3.89
2022-12-19T06:12:55.296Z,3.91
2022-12-19T06:15:25.142Z,3.96
2022-12-19T06:17:57.070Z,3.95
2022-12-19T06:20:29.453Z,4.00
2022-12-19T06:22:59.246Z,4.01
2022-12-19T06:25:29.068Z,4.05
2022-12-19T06:27:58.868Z,4.07
2022-12-19T06:30:28.666Z,4.08
2022-12-19T06:32:58.512Z,4.12
2022-12-19T06:35:31.144Z,4.14
2022-12-19T06:38:01.233Z,4.15
2022-12-19T06:40:43.465Z,4.18
2022-12-19T06:43:13.311Z,4.18
2022-12-19T06:45:43.075Z,4.21
2022-12-19T06:48:12.959Z,4.24
2022-12-19T06:50:45.420Z,4.26
2022-12-19T06:53:15.280Z,4.28
2022-12-19T06:55:45.394Z,4.30
2022-12-19T06:58:16.070Z,4.34
2022-12-19T07:00:48.067Z,4.37
2022-12-19T07:03:21.728Z,4.39
2022-12-19T07:05:54.123Z,4.39
2022-12-19T07:08:23.880Z,4.44
2022-12-19T07:10:53.966Z,4.48
2022-12-19T07:13:23.813Z,4.51
2022-12-19T07:15:55.410Z,4.54
2022-12-19T07:18:25.211Z,4.58
2022-12-19T07:20:59.640Z,4.64
2022-12-19T07:23:29.499Z,4.68
2022-12-19T07:26:00.724Z,4.72
2022-12-19T07:28:30.570Z,4.76
2022-12-19T07:31:00.333Z,4.79
2022-12-19T07:33:30.164Z,4.83
2022-12-19T07:36:02.595Z,4.85
2022-12-19T07:38:32.386Z,4.88
2022-12-19T07:41:04.162Z,4.91
2022-12-19T07:43:34.061Z,4.91
2022-12-19T07:46:03.846Z,4.94
2022-12-19T07:48:33.943Z,4.97
2022-12-19T07:51:10.584Z,5.02
2022-12-19T07:53:40.427Z,5.03
2022-12-19T07:56:11.243Z,5.05
2022-12-19T07:58:41.310Z,5.06
2022-12-19T08:01:12.354Z,5.09
2022-12-19T08:03:42.312Z,5.12
2022-12-19T08:06:14.879Z,5.16
2022-12-19T08:08:44.670Z,5.18
2022-12-19T08:11:17.440Z,5.22
2022-12-19T08:13:47.289Z,5.26
2022-12-19T08:16:17.702Z,5.28
2022-12-19T08:18:48.026Z,5.31
2022-12-19T08:21:20.369Z,5.34
2022-12-19T08:23:50.145Z,5.37
2022-12-19T08:26:25.557Z,5.42
2022-12-19T08:28:55.813Z,5.43
2022-12-19T08:31:27.743Z,5.44
2022-12-19T08:33:59.453Z,5.48
2022-12-19T08:36:31.778Z,5.52
2022-12-19T08:39:01.510Z,5.54
2022-12-19T08:41:31.227Z,5.58
2022-12-19T08:44:01.966Z,5.62
2022-12-19T08:46:31.986Z,5.64
2022-12-19T08:49:01.998Z,5.69
2022-12-19T08:51:34.610Z,5.70
2022-12-19T08:54:05.156Z,5.74
2022-12-19T08:56:50.501Z,5.76
2022-12-19T08:59:30.201Z,5.80
2022-12-19T09:02:01.517Z,5.83
2022-12-19T09:05:52.854Z,5.86
2022-12-19T09:07:38.862Z,5.91
2022-12-19T09:10:10.189Z,5.93
2022-12-19T09:12:39.954Z,5.94
2022-12-19T09:15:10.547Z,5.99
2022-12-19T09:17:40.663Z,6.03
2022-12-19T09:20:12.271Z,6.07
2022-12-19T09:22:44.862Z,6.09
2022-12-19T09:25:14.655Z,6.12
2022-12-19T09:28:17.964Z,6.17
2022-12-19T09:30:34.539Z,6.20
2022-12-19T09:33:05.842Z,6.23
2022-12-19T09:35:35.590Z,6.28
2022-12-19T09:38:07.968Z,6.32
2022-12-19T09:40:54.634Z,6.37
2022-12-19T09:43:41.144Z,6.41
2022-12-19T09:46:19.380Z,6.45
2022-12-19T09:48:54.581Z,6.48
2022-12-19T09:51:37.398Z,6.52
2022-12-19T09:54:17.208Z,6.55
2022-12-19T09:56:48.475Z,6.58
2022-12-19T09:59:39.713Z,6.62
2022-12-19T10:02:26.970Z,6.64
2022-12-19T10:05:16.872Z,6.66
2022-12-19T10:08:08.468Z,6.69
2022-12-19T10:12:39.486Z,6.72
2022-12-19T10:14:03.557Z,6.76
2022-12-19T10:17:08.503Z,6.77
2022-12-19T10:19:45.738Z,6.82
2022-12-19T10:22:26.841Z,6.86
2022-12-19T10:25:17.231Z,6.91
2022-12-19T10:27:59.662Z,6.94
2022-12-19T10:30:33.690Z,6.99
2022-12-19T10:33:20.570Z,7.02
2022-12-19T10:35:57.571Z,7.05
2022-12-19T10:38:38.805Z,7.09
2022-12-19T10:41:19.449Z,7.12
2022-12-19T10:43:59.590Z,7.17
2022-12-19T10:46:40.512Z,7.20
2022-12-19T10:49:17.334Z,7.24
2022-12-19T10:51:56.612Z,7.28
2022-12-19T10:54:33.402Z,7.31
2022-12-19T10:57:21.138Z,7.35
2022-12-19T11:00:04.829Z,7.41
2022-12-19T11:02:44.609Z,7.45
2022-12-19T11:05:28.024Z,7.50
2022-12-19T11:08:06.837Z,7.52
2022-12-19T11:12:42.475Z,7.56
2022-12-19T11:20:06.090Z,7.61
2022-12-19T11:21:11.703Z,7.64
2022-12-19T11:29:41.548Z,7.66
2022-12-19T11:30:41.365Z,7.72
2022-12-19T11:30:47.446Z,7.74
2022-12-19T11:30:47.824Z,7.69
2022-12-19T11:32:31.999Z,7.77
2022-12-19T11:34:09.693Z,7.83
2022-12-19T11:36:45.852Z,7.84
2022-12-19T11:39:23.177Z,7.88
2022-12-19T11:42:03.284Z,7.91
2022-12-19T11:44:39.047Z,7.94
2022-12-19T11:47:21.727Z,7.96
2022-12-19T11:50:01.547Z,8.01
2022-12-19T11:55:43.630Z,8.06
2022-12-19T11:58:14.140Z,8.06
2022-12-19T12:00:53.604Z,8.08
2022-12-19T12:04:01.734Z,8.11
2022-12-19T12:06:39.925Z,8.12
2022-12-19T12:12:22.395Z,8.14
2022-12-19T12:22:19.209Z,8.17
2022-12-19T12:24:48.052Z,8.18
2022-12-19T12:31:08.710Z,8.20
2022-12-19T12:31:31.739Z,8.18
2022-12-19T12:31:47.315Z,8.27
2022-12-19T12:31:50.629Z,8.24
2022-12-19T12:31:52.922Z,8.23
2022-12-19T12:35:38.052Z,8.28
2022-12-19T12:38:12.230Z,8.29
2022-12-19T12:39:43.003Z,8.32
2022-12-19T12:42:21.449Z,8.35
2022-12-19T12:44:55.644Z,8.36
2022-12-19T12:47:27.119Z,8.39
2022-12-19T12:50:00.853Z,8.41
2022-12-19T12:52:38.254Z,8.44
2022-12-19T12:55:17.525Z,8.46
2022-12-19T12:57:47.357Z,8.49
2022-12-19T13:00:24.058Z,8.49
2022-12-19T13:02:57.957Z,8.50
2022-12-19T13:05:55.998Z,8.53
2022-12-19T13:08:39.264Z,8.54
2022-12-19T13:11:34.607Z,8.55
2022-12-19T13:14:04.437Z,8.56
2022-12-19T13:16:56.090Z,8.58
2022-12-19T13:19:29.342Z,8.59
2022-12-19T13:22:21.726Z,8.61
2022-12-19T13:24:55.915Z,8.60
2022-12-19T13:27:36.699Z,8.61
2022-12-19T13:30:21.603Z,8.61
2022-12-19T13:33:10.849Z,8.64
2022-12-19T13:39:45.238Z,8.65
2022-12-19T13:39:51.268Z,8.68
2022-12-19T13:41:55.105Z,8.67
2022-12-19T13:44:25.329Z,8.70
2022-12-19T13:46:58.059Z,8.70
2022-12-19T13:49:34.663Z,8.72
2022-12-19T13:52:07.987Z,8.71
2022-12-19T13:54:48.867Z,8.73
2022-12-19T13:57:28.281Z,8.74
2022-12-19T14:00:02.975Z,8.76
2022-12-19T14:02:44.976Z,8.77
2022-12-19T14:05:48.585Z,8.79
2022-12-19T14:08:22.463Z,8.79
2022-12-19T14:11:40.505Z,8.81
2022-12-19T14:14:15.064Z,8.83
2022-12-19T14:16:49.145Z,8.83
2022-12-19T14:19:24.599Z,8.85
2022-12-19T14:22:10.193Z,8.86
2022-12-19T14:24:42.475Z,8.88
2022-12-19T14:28:20.451Z,8.90
2022-12-19T14:30:29.828Z,8.90
2022-12-19T14:33:45.424Z,8.90
2022-12-19T14:36:06.919Z,8.88
2022-12-19T14:39:23.376Z,8.89
2022-12-19T14:42:00.881Z,8.89
2022-12-19T14:53:52.265Z,8.91
2022-12-19T14:54:01.163Z,8.91
2022-12-19T14:54:07.659Z,8.91
2022-12-19T14:54:31.210Z,8.92
2022-12-19T14:56:57.665Z,8.93
2022-12-19T14:59:08.494Z,8.94
2022-12-19T15:01:38.784Z,8.95
2022-12-19T15:04:50.229Z,8.96
2022-12-19T15:07:12.915Z,8.96
2022-12-19T15:11:08.036Z,8.98
2022-12-19T15:14:48.363Z,8.98
2022-12-19T15:15:58.961Z,8.97
2022-12-19T15:18:31.482Z,8.96
2022-12-19T15:21:05.839Z,8.98
2022-12-19T15:23:35.850Z,8.97
2022-12-19T15:26:08.575Z,8.97
2022-12-19T15:28:42.197Z,8.98
2022-12-19T15:31:24.555Z,8.99
2022-12-19T15:36:46.802Z,8.97
2022-12-19T15:39:17.815Z,8.96
2022-12-19T15:41:49.630Z,8.96
2022-12-19T15:44:22.908Z,8.95
2022-12-19T15:46:52.769Z,8.95
2022-12-19T15:49:24.096Z,8.97
2022-12-19T15:51:56.530Z,8.96
2022-12-19T15:57:32.110Z,8.97
2022-12-19T16:00:05.253Z,8.95
2022-12-19T16:03:21.341Z,8.96
2022-12-19T16:05:29.407Z,8.97
2022-12-19T16:08:02.042Z,8.98
2022-12-19T16:10:32.285Z,8.97
2022-12-19T16:13:02.057Z,8.98
2022-12-19T16:15:34.327Z,8.98
2022-12-19T16:18:05.851Z,8.98
2022-12-19T16:20:39.579Z,8.99
2022-12-19T16:23:12.485Z,9.00
2022-12-19T16:25:44.355Z,9.01
2022-12-19T16:28:20.595Z,9.03
2022-12-19T16:30:51.471Z,9.02
2022-12-19T16:33:24.571Z,9.03
2022-12-19T16:36:04.085Z,9.02
2022-12-19T16:38:37.686Z,9.04
2022-12-19T16:41:07.587Z,9.02
2022-12-19T16:43:41.443Z,9.04
2022-12-19T16:46:18.526Z,9.04
2022-12-19T16:48:48.882Z,9.03
2022-12-19T16:51:22.392Z,9.04
2022-12-19T16:53:57.664Z,9.03
2022-12-19T16:56:31.131Z,9.02
2022-12-19T16:59:03.012Z,9.00
2022-12-19T17:01:33.125Z,9.00
2022-12-19T17:04:03.002Z,9.01
2022-12-19T17:06:32.816Z,8.99
2022-12-19T17:09:05.186Z,8.98
2022-12-19T17:11:34.906Z,8.95
2022-12-19T17:14:08.440Z,8.95
2022-12-19T17:16:38.426Z,8.95
2022-12-19T17:19:08.581Z,8.94
2022-12-19T17:21:39.405Z,8.96
2022-12-19T17:24:15.844Z,8.94
2022-12-19T17:26:45.960Z,8.93
2022-12-19T17:29:16.580Z,8.94
2022-12-19T17:31:46.653Z,8.94
2022-12-19T17:34:20.641Z,8.94
2022-12-19T17:36:50.519Z,8.94
2022-12-19T17:39:25.768Z,8.96
2022-12-19T17:41:58.416Z,8.96
2022-12-19T17:44:28.320Z,8.96
2022-12-19T17:46:58.077Z,8.96
2022-12-19T17:49:32.112Z,8.97
2022-12-19T17:52:02.917Z,8.96
2022-12-19T17:54:35.272Z,8.96
2022-12-19T17:57:04.983Z,8.96
2022-12-19T17:59:34.842Z,8.97
2022-12-19T18:02:04.812Z,8.97
2022-12-19T18:04:34.852Z,8.98
2022-12-19T18:07:04.624Z,8.96
2022-12-19T18:09:37.082Z,8.94
2022-12-19T18:12:07.182Z,8.95
2022-12-19T18:14:37.447Z,8.94
2022-12-19T18:17:07.951Z,8.91
2022-12-19T18:19:37.920Z,8.90
2022-12-19T18:22:14.567Z,8.88
2022-12-19T18:24:46.983Z,8.85
2022-12-19T18:27:16.778Z,8.82
2022-12-19T18:29:46.520Z,8.80
2022-12-19T18:32:20.370Z,8.79
2022-12-19T18:34:50.347Z,8.76
2022-12-19T18:37:20.284Z,8.72
2022-12-19T18:39:55.720Z,8.70
2022-12-19T18:42:25.455Z,8.68
2022-12-19T18:44:55.513Z,8.68
2022-12-19T18:47:26.870Z,8.65
2022-12-19T18:49:56.678Z,8.63
2022-12-19T18:52:26.524Z,8.62
2022-12-19T18:54:59.139Z,8.61
2022-12-19T18:57:29.004Z,8.57
2022-12-19T18:59:58.748Z,8.57
2022-12-19T19:02:30.368Z,8.56
2022-12-19T19:05:00.448Z,8.56
2022-12-19T19:07:30.286Z,8.56
2022-12-19T19:10:02.667Z,8.56
2022-12-19T19:12:32.589Z,8.57
2022-12-19T19:15:02.425Z,8.58
2022-12-19T19:17:32.542Z,8.57
2022-12-19T19:20:02.597Z,8.59
2022-12-19T19:22:32.507Z,8.58
2022-12-19T19:25:04.852Z,8.58
2022-12-19T19:27:34.555Z,8.57
2022-12-19T19:30:04.845Z,8.56
2022-12-19T19:32:35.444Z,8.55
2022-12-19T19:35:09.659Z,8.55
2022-12-19T19:37:40.667Z,8.53
2022-12-19T19:40:14.720Z,8.56
2022-12-19T19:42:44.426Z,8.54
2022-12-19T19:45:14.696Z,8.56
2022-12-19T19:47:45.684Z,8.58
2022-12-19T19:50:15.925Z,8.58
2022-12-19T19:52:45.678Z,8.59
2022-12-19T19:55:17.994Z,8.59
2022-12-19T19:57:48.133Z,8.59
2022-12-19T20:00:18.522Z,8.59
2022-12-19T20:02:48.583Z,8.62
2022-12-19T20:05:18.700Z,8.62
2022-12-19T20:07:48.404Z,8.63
2022-12-19T20:10:20.909Z,8.65
2022-12-19T20:12:50.625Z,8.65
2022-12-19T20:15:22.729Z,8.67
2022-12-19T20:17:55.516Z,8.66
2022-12-19T20:20:25.577Z,8.68
2022-12-19T20:22:55.320Z,8.70
2022-12-19T20:25:27.728Z,8.71
2022-12-19T20:27:57.506Z,8.72
2022-12-19T20:30:27.260Z,8.75
2022-12-19T20:32:57.291Z,8.79
2022-12-19T20:35:27.044Z,8.80
2022-12-19T20:37:56.814Z,8.80
2022-12-19T20:40:29.377Z,8.81
2022-12-19T20:42:59.171Z,8.83
2022-12-19T20:45:28.942Z,8.85
2022-12-19T20:47:58.673Z,8.87
2022-12-19T20:50:28.432Z,8.90
2022-12-19T20:52:58.285Z,8.91
2022-12-19T20:55:30.671Z,8.95
2022-12-19T20:58:00.460Z,8.96
2022-12-19T21:00:30.209Z,8.97
2022-12-19T21:03:27.087Z,8.99
2022-12-19T21:05:55.300Z,9.00
2022-12-19T21:08:25.358Z,9.01
2022-12-19T21:10:57.797Z,9.02
2022-12-19T21:13:27.542Z,9.05
2022-12-19T21:15:58.641Z,9.06
2022-12-19T21:18:29.338Z,9.04
2022-12-19T21:20:59.693Z,9.06
2022-12-19T21:23:30.196Z,9.08
2022-12-19T21:26:04.927Z,9.08
2022-12-19T21:28:34.917Z,9.08
2022-12-19T21:31:06.868Z,9.09
2022-12-19T21:33:37.199Z,9.12
2022-12-19T21:36:11.159Z,9.12
2022-12-19T21:38:41.503Z,9.11
2022-12-19T21:41:18.948Z,9.13
2022-12-19T21:43:51.753Z,9.14
2022-12-19T21:46:22.801Z,9.12
2022-12-19T21:48:55.109Z,9.15
2022-12-19T21:51:27.672Z,9.15
2022-12-19T21:54:00.566Z,9.18
2022-12-19T21:56:34.521Z,9.20
2022-12-19T21:59:06.743Z,9.21
2022-12-19T22:01:37.062Z,9.23
2022-12-19T22:04:09.367Z,9.25
2022-12-19T22:06:40.140Z,9.27
2022-12-19T22:09:12.104Z,9.29
2022-12-19T22:11:44.986Z,9.29
2022-12-19T22:14:15.702Z,9.30
2022-12-19T22:16:45.857Z,9.31
2022-12-19T22:19:17.377Z,9.34
2022-12-19T22:21:48.431Z,9.36
2022-12-19T22:24:20.122Z,9.37
2022-12-19T22:26:52.475Z,9.38
2022-12-19T22:29:22.336Z,9.38
2022-12-19T22:31:52.414Z,9.38
2022-12-19T22:34:24.092Z,9.40
2022-12-19T22:36:53.831Z,9.42
2022-12-19T22:39:24.194Z,9.45
2022-12-19T22:41:56.578Z,9.47
2022-12-19T22:44:27.493Z,9.47
2022-12-19T22:46:57.523Z,9.49
2022-12-19T22:49:27.260Z,9.49
2022-12-19T22:51:56.975Z,9.49
2022-12-19T22:54:26.731Z,9.51
2022-12-19T22:56:59.036Z,9.51
2022-12-19T22:59:31.194Z,9.53
2022-12-19T23:02:01.166Z,9.54
2022-12-19T23:04:31.149Z,9.57
2022-12-19T23:07:00.915Z,9.59
2022-12-19T23:09:31.056Z,9.59
2022-12-19T23:12:03.415Z,9.61
2022-12-19T23:14:33.160Z,9.60
2022-12-19T23:17:03.009Z,9.60
2022-12-19T23:19:32.761Z,9.62
2022-12-19T23:22:03.354Z,9.65
2022-12-19T23:24:33.332Z,9.67
2022-12-19T23:27:05.835Z,9.69
2022-12-19T23:29:35.586Z,9.71
2022-12-19T23:32:05.453Z,9.73
2022-12-19T23:34:35.302Z,9.75
2022-12-19T23:37:12.951Z,9.79
2022-12-19T23:39:42.939Z,9.82
2022-12-19T23:42:15.254Z,9.83
2022-12-19T23:44:45.141Z,9.83
2022-12-19T23:47:14.939Z,9.86
2022-12-19T23:49:44.723Z,9.85
2022-12-19T23:52:14.779Z,9.88
2022-12-19T23:54:45.087Z,9.88
2022-12-19T23:57:17.498Z,9.87
2022-12-19T23:59:47.215Z,9.91
